createdAt,value
2018-02-08T00:01:45.001Z,95110
2018-02-08T00:04:13.081Z,95106
2018-02-08T00:06:41.145Z,95103
2018-02-08T00:09:09.253Z,95103
2018-02-08T00:11:37.318Z,95102
2018-02-08T00:14:05.400Z,95100
2018-02-08T00:16:33.470Z,95107
2018-02-08T00:19:01.905Z,95110
2018-02-08T00:21:30.737Z,95109
2018-02-08T00:23:58.817Z,95098
2018-02-08T00:26:26.905Z,95118
2018-02-08T00:28:54.981Z,95119
2018-02-08T00:31:23.057Z,95109
2018-02-08T00:33:51.137Z,95115
2018-02-08T00:36:19.327Z,95112
2018-02-08T00:38:47.438Z,95108
2018-02-08T00:41:16.269Z,95105
2018-02-08T00:43:44.469Z,95099
2018-02-08T00:46:12.641Z,95124
2018-02-08T00:48:40.709Z,95116
2018-02-08T00:53:41.648Z,95121
2018-02-08T00:56:09.753Z,95128
2018-02-08T00:58:37.933Z,95134
2018-02-08T01:01:06.017Z,95149
2018-02-08T01:03:34.131Z,95128
2018-02-08T01:06:02.182Z,95133
2018-02-08T01:08:30.285Z,95145
2018-02-08T01:10:59.120Z,95144
2018-02-08T01:13:27.182Z,95132
2018-02-08T01:15:55.290Z,95127
2018-02-08T01:18:23.462Z,95140
2018-02-08T01:20:51.524Z,95134
2018-02-08T01:23:19.609Z,95145
2018-02-08T01:25:47.701Z,95142
2018-02-08T01:28:15.770Z,95148
2018-02-08T01:30:43.836Z,95129
2018-02-08T01:33:11.905Z,95143
2018-02-08T01:35:39.970Z,95154
2018-02-08T01:38:08.049Z,95132
2018-02-08T01:40:36.115Z,95131
2018-02-08T01:43:04.237Z,95129
2018-02-08T01:45:32.309Z,95141
2018-02-08T01:48:00.386Z,95128
2018-02-08T01:50:28.458Z,95137
2018-02-08T01:52:56.539Z,95136
2018-02-08T01:55:24.612Z,95124
2018-02-08T01:57:52.686Z,95135
2018-02-08T02:00:22.213Z,95126
2018-02-08T02:02:51.401Z,95132
2018-02-08T02:05:19.493Z,95131
2018-02-08T02:07:49.065Z,95142
2018-02-08T02:10:17.165Z,95134
2018-02-08T02:12:45.342Z,95150
2018-02-08T02:15:13.421Z,95139
2018-02-08T02:17:41.668Z,95139
2018-02-08T02:20:09.736Z,95138
2018-02-08T02:22:37.821Z,95136
2018-02-08T02:25:05.890Z,95138
2018-02-08T02:27:33.967Z,95143
2018-02-08T02:30:02.071Z,95137
2018-02-08T02:32:30.134Z,95151
2018-02-08T02:34:58.239Z,95130
2018-02-08T02:37:26.298Z,95140
2018-02-08T02:39:54.374Z,95145
2018-02-08T02:42:22.450Z,95142
2018-02-08T02:44:50.538Z,95148
2018-02-08T02:47:18.597Z,95151
2018-02-08T02:49:46.690Z,95143
2018-02-08T02:52:14.754Z,95142
2018-02-08T02:54:42.853Z,95157
2018-02-08T02:57:10.924Z,95156
2018-02-08T02:59:39.013Z,95147
2018-02-08T03:02:07.094Z,95155
2018-02-08T03:04:35.169Z,95151
2018-02-08T03:07:03.234Z,95149
2018-02-08T03:09:31.401Z,95145
2018-02-08T03:11:59.485Z,95150
2018-02-08T03:14:27.570Z,95141
2018-02-08T03:16:55.637Z,95156
2018-02-08T03:19:23.720Z,95150
2018-02-08T03:21:52.218Z,95150
2018-02-08T03:24:20.377Z,95152
2018-02-08T03:26:48.453Z,95162
2018-02-08T03:29:16.537Z,95166
2018-02-08T03:31:44.602Z,95168
2018-02-08T03:34:12.685Z,95162
2018-02-08T03:36:40.745Z,95169
2018-02-08T03:39:08.941Z,95169
2018-02-08T03:41:37.017Z,95164
2018-02-08T03:44:05.117Z,95171
2018-02-08T03:46:33.265Z,95183
2018-02-08T03:49:01.346Z,95181
2018-02-08T03:51:29.421Z,95168
2018-02-08T03:53:57.593Z,95171
2018-02-08T03:56:25.677Z,95171
2018-02-08T03:58:53.743Z,95189
2018-02-08T04:01:23.462Z,95189
2018-02-08T04:03:52.648Z,95186
2018-02-08T04:06:20.722Z,95195
2018-02-08T04:08:48.789Z,95193
2018-02-08T04:11:16.898Z,95194
2018-02-08T04:13:45.011Z,95202
2018-02-08T04:16:13.838Z,95196
2018-02-08T04:18:41.913Z,95205
2018-02-08T04:21:10.086Z,95186
2018-02-08T04:23:38.238Z,95191
2018-02-08T04:26:06.278Z,95203
2018-02-08T04:28:34.494Z,95204
2018-02-08T04:31:02.568Z,95203
2018-02-08T04:33:30.631Z,95197
2018-02-08T04:35:58.798Z,95202
2018-02-08T04:38:44.686Z,95193
2018-02-08T04:41:30.638Z,95210
2018-02-08T04:44:23.497Z,95214
2018-02-08T04:49:57.233Z,95216
2018-02-08T04:52:26.078Z,95214
2018-02-08T04:54:54.141Z,95213
2018-02-08T04:57:23.373Z,95209
2018-02-08T04:59:51.438Z,95222
2018-02-08T05:02:19.513Z,95215
2018-02-08T05:04:47.578Z,95215
2018-02-08T05:07:15.651Z,95224
2018-02-08T05:09:43.726Z,95228
2018-02-08T05:12:11.802Z,95222
2018-02-08T05:14:39.893Z,95225
2018-02-08T05:17:07.970Z,95228
2018-02-08T05:19:36.164Z,95225
2018-02-08T05:22:04.364Z,95230
2018-02-08T05:24:32.425Z,95230
2018-02-08T05:27:00.501Z,95241
2018-02-08T05:29:28.589Z,95237
2018-02-08T05:31:56.661Z,95240
2018-02-08T05:34:24.753Z,95239
2018-02-08T05:36:54.718Z,95249
2018-02-08T05:39:24.041Z,95244
2018-02-08T05:41:52.122Z,95231
2018-02-08T05:44:20.197Z,95253
2018-02-08T05:46:48.284Z,95250
2018-02-08T05:49:16.345Z,95252
2018-02-08T05:51:44.426Z,95262
2018-02-08T05:54:12.509Z,95251
2018-02-08T05:56:40.595Z,95257
2018-02-08T05:59:08.657Z,95265
2018-02-08T06:01:36.738Z,95250
2018-02-08T06:04:04.805Z,95254
2018-02-08T06:06:32.985Z,95251
2018-02-08T06:09:01.061Z,95261
2018-02-08T06:11:29.137Z,95255
2018-02-08T06:13:57.200Z,95269
2018-02-08T06:16:26.013Z,95262
2018-02-08T06:18:55.082Z,95274
2018-02-08T06:21:24.285Z,95274
2018-02-08T06:23:53.101Z,95286
2018-02-08T06:26:21.173Z,95270
2018-02-08T06:28:49.237Z,95284
2018-02-08T06:31:17.312Z,95283
2018-02-08T06:33:45.401Z,95296
2018-02-08T06:36:13.893Z,95291
2018-02-08T06:38:42.084Z,95291
2018-02-08T06:41:10.261Z,95284
2018-02-08T06:43:38.335Z,95298
2018-02-08T06:46:06.405Z,95290
2018-02-08T06:48:34.480Z,95285
2018-02-08T06:51:02.546Z,95305
2018-02-08T06:53:30.642Z,95296
2018-02-08T06:55:58.726Z,95311
2018-02-08T06:58:26.822Z,95307
2018-02-08T07:00:55.649Z,95326
2018-02-08T07:03:24.865Z,95319
2018-02-08T07:05:52.929Z,95324
2018-02-08T07:08:21.033Z,95326
2018-02-08T07:10:49.097Z,95329
2018-02-08T07:13:17.181Z,95332
2018-02-08T07:15:45.245Z,95332
2018-02-08T07:18:13.336Z,95330
2018-02-08T07:20:41.393Z,95347
2018-02-08T07:23:09.564Z,95349
2018-02-08T07:25:37.612Z,95348
2018-02-08T07:28:06.465Z,95340
2018-02-08T07:30:34.528Z,95332
2018-02-08T07:33:02.625Z,95346
2018-02-08T07:35:30.793Z,95358
2018-02-08T07:37:58.874Z,95360
2018-02-08T07:40:26.945Z,95364
2018-02-08T07:42:56.121Z,95367
2018-02-08T07:45:25.328Z,95367
2018-02-08T07:47:53.498Z,95349
2018-02-08T07:50:21.577Z,95369
2018-02-08T07:52:49.637Z,95363
2018-02-08T07:55:17.713Z,95371
2018-02-08T07:57:46.558Z,95371
2018-02-08T08:00:14.646Z,95375
2018-02-08T08:02:42.723Z,95376
2018-02-08T08:05:10.799Z,95368
2018-02-08T08:07:39.625Z,95381
2018-02-08T08:10:08.476Z,95372
2018-02-08T08:12:36.537Z,95371
2018-02-08T08:15:04.616Z,95372
2018-02-08T08:17:32.681Z,95371
2018-02-08T08:20:00.788Z,95377
2018-02-08T08:22:28.849Z,95366
2018-02-08T08:24:56.930Z,95372
2018-02-08T08:27:27.462Z,95373
2018-02-08T08:29:56.749Z,95377
2018-02-08T08:32:25.934Z,95392
2018-02-08T08:34:54.025Z,95387
2018-02-08T08:37:22.102Z,95370
2018-02-08T08:39:50.177Z,95391
2018-02-08T08:42:18.273Z,95382
2018-02-08T08:44:46.445Z,95369
2018-02-08T08:47:14.509Z,95395
2018-02-08T08:49:42.574Z,95386
2018-02-08T08:52:10.634Z,95396
2018-02-08T08:54:38.753Z,95392
2018-02-08T08:57:06.830Z,95409
2018-02-08T08:59:35.008Z,95405
2018-02-08T09:02:03.067Z,95398
2018-02-08T09:04:31.132Z,95411
2018-02-08T09:06:59.233Z,95421
2018-02-08T09:09:27.314Z,95410
2018-02-08T09:11:56.510Z,95417
2018-02-08T09:14:24.590Z,95418
2018-02-08T09:16:52.662Z,95404
2018-02-08T09:19:20.737Z,95411
2018-02-08T09:21:49.461Z,95409
2018-02-08T09:24:17.533Z,95416
2018-02-08T09:26:45.608Z,95414
2018-02-08T09:29:13.766Z,95407
2018-02-08T09:31:41.866Z,95418
2018-02-08T09:34:10.842Z,95409
2018-02-08T09:36:38.905Z,95419
2018-02-08T09:39:06.954Z,95407
2018-02-08T09:41:35.070Z,95418
2018-02-08T09:44:03.149Z,95417
2018-02-08T09:46:31.247Z,95408
2018-02-08T09:48:59.273Z,95428
2018-02-08T09:51:27.442Z,95417
2018-02-08T09:53:56.365Z,95418
2018-02-08T09:56:24.445Z,95426
2018-02-08T09:58:52.530Z,95431
2018-02-08T10:01:20.705Z,95419
2018-02-08T10:03:48.761Z,95409
2018-02-08T10:06:16.859Z,95414
2018-02-08T10:08:44.913Z,95416
2018-02-08T10:11:13.415Z,95413
2018-02-08T10:13:41.466Z,95429
2018-02-08T10:16:09.581Z,95420
2018-02-08T10:18:37.633Z,95426
2018-02-08T10:21:05.726Z,95417
2018-02-08T10:23:33.776Z,95422
2018-02-08T10:26:01.841Z,95435
2018-02-08T10:28:29.893Z,95421
2018-02-08T10:30:58.745Z,95415
2018-02-08T10:33:27.553Z,95432
2018-02-08T10:35:55.997Z,95416
2018-02-08T10:38:24.058Z,95429
2018-02-08T10:40:52.178Z,95419
2018-02-08T10:43:20.226Z,95425
2018-02-08T10:45:48.321Z,95424
2018-02-08T10:48:16.381Z,95423
2018-02-08T10:50:44.474Z,95431
2018-02-08T10:53:12.543Z,95430
2018-02-08T10:55:40.605Z,95413
2018-02-08T10:58:08.656Z,95427
2018-02-08T11:00:37.489Z,95418
2018-02-08T11:03:05.541Z,95427
2018-02-08T11:05:33.613Z,95413
2018-02-08T11:08:01.671Z,95409
2018-02-08T11:10:30.639Z,95405
2018-02-08T11:12:58.848Z,95415
2018-02-08T11:15:28.109Z,95409
2018-02-08T11:17:56.289Z,95404
2018-02-08T11:20:24.374Z,95408
2018-02-08T11:22:52.645Z,95407
2018-02-08T11:25:20.717Z,95409
2018-02-08T11:27:48.777Z,95410
2018-02-08T11:30:16.837Z,95416
2018-02-08T11:32:44.949Z,95415
2018-02-08T11:35:13.025Z,95411
2018-02-08T11:37:41.093Z,95415
2018-02-08T11:40:09.153Z,95407
2018-02-08T11:42:37.225Z,95407
2018-02-08T11:45:05.337Z,95413
2018-02-08T11:47:33.403Z,95411
2018-02-08T11:50:01.448Z,95404
2018-02-08T11:52:29.530Z,95428
2018-02-08T11:54:58.653Z,95405
2018-02-08T11:57:27.144Z,95414
2018-02-08T11:59:55.192Z,95411
2018-02-08T12:02:23.905Z,95411
2018-02-08T12:04:51.967Z,95411
2018-02-08T12:07:20.029Z,95415
2018-02-08T12:09:48.145Z,95421
2018-02-08T12:12:16.213Z,95417
2018-02-08T12:14:44.269Z,95426
2018-02-08T12:17:12.373Z,95421
2018-02-08T12:19:40.433Z,95422
2018-02-08T12:22:08.490Z,95415
2018-02-08T12:24:36.549Z,95419
2018-02-08T12:27:05.397Z,95418
2018-02-08T12:29:33.485Z,95409
2018-02-08T12:32:01.531Z,95412
2018-02-08T12:34:29.593Z,95396
2018-02-08T12:36:57.655Z,95410
2018-02-08T12:39:25.717Z,95410
2018-02-08T12:41:54.534Z,95399
2018-02-08T12:44:22.606Z,95407
2018-02-08T12:46:50.653Z,95400
2018-02-08T12:49:19.520Z,95399
2018-02-08T12:51:47.581Z,95411
2018-02-08T12:54:15.646Z,95396
2018-02-08T12:56:43.704Z,95398
2018-02-08T12:59:11.809Z,95384
2018-02-08T13:01:40.601Z,95409
2018-02-08T13:04:08.692Z,95396
2018-02-08T13:06:36.744Z,95396
2018-02-08T13:09:04.842Z,95390
2018-02-08T13:11:32.982Z,95397
2018-02-08T13:14:01.102Z,95396
2018-02-08T13:16:29.793Z,95389
2018-02-08T13:18:57.911Z,95394
2018-02-08T13:21:25.937Z,95393
2018-02-08T13:23:54.017Z,95396
2018-02-08T13:26:22.089Z,95391
2018-02-08T13:28:50.268Z,95390
2018-02-08T13:31:21.706Z,95397
2018-02-08T13:33:49.801Z,95385
2018-02-08T13:36:17.862Z,95379
2018-02-08T13:38:45.946Z,95388
2018-02-08T13:41:13.997Z,95384
2018-02-08T13:43:42.069Z,95389
2018-02-08T13:46:10.125Z,95379
2018-02-08T13:48:38.599Z,95383
2018-02-08T13:51:07.745Z,95387
2018-02-08T13:53:41.333Z,95399
2018-02-08T13:56:11.314Z,95392
2018-02-08T14:01:52.922Z,95396
2018-02-08T14:04:21.744Z,95397
2018-02-08T14:06:49.807Z,95404
2018-02-08T14:09:17.873Z,95401
2018-02-08T14:11:46.689Z,95400
2018-02-08T14:14:14.756Z,95405
2018-02-08T14:16:42.813Z,95406
2018-02-08T14:19:12.173Z,95411
2018-02-08T14:21:40.241Z,95412
2018-02-08T14:24:08.900Z,95402
2018-02-08T14:26:37.017Z,95403
2018-02-08T14:29:05.069Z,95405
2018-02-08T14:31:33.146Z,95398
2018-02-08T14:34:01.238Z,95410
2018-02-08T14:36:29.319Z,95407
2018-02-08T14:38:57.463Z,95402
2018-02-08T14:41:25.577Z,95400
2018-02-08T14:43:53.649Z,95391
2018-02-08T14:46:21.713Z,95394
2018-02-08T14:48:49.765Z,95408
2018-02-08T14:51:17.888Z,95408
2018-02-08T14:53:45.949Z,95406
2018-02-08T14:56:14.014Z,95411
2018-02-08T14:58:42.077Z,95405
2018-02-08T15:01:10.185Z,95398
2018-02-08T15:03:38.242Z,95412
2018-02-08T15:06:06.305Z,95411
2018-02-08T15:08:35.405Z,95408
2018-02-08T15:11:03.505Z,95409
2018-02-08T15:13:31.697Z,95413
2018-02-08T15:15:59.760Z,95420
2018-02-08T15:18:27.839Z,95415
2018-02-08T15:20:55.910Z,95406
2018-02-08T15:23:24.965Z,95413
2018-02-08T15:25:53.809Z,95411
2018-02-08T15:28:21.864Z,95409
2018-02-08T15:30:49.976Z,95429
2018-02-08T15:33:18.026Z,95410
2018-02-08T15:35:46.089Z,95411
2018-02-08T15:38:14.160Z,95417
2018-02-08T15:40:42.273Z,95425
2018-02-08T15:43:10.453Z,95409
2018-02-08T15:45:38.517Z,95420
2018-02-08T15:48:06.577Z,95421
2018-02-08T15:50:34.633Z,95411
2018-02-08T15:53:02.753Z,95411
2018-02-08T15:55:31.937Z,95421
2018-02-08T15:58:00.639Z,95423
2018-02-08T16:00:28.693Z,95434
2018-02-08T16:02:56.765Z,95426
2018-02-08T16:05:24.873Z,95427
2018-02-08T16:07:52.953Z,95417
2018-02-08T16:10:21.013Z,95424
2018-02-08T16:12:49.077Z,95429
2018-02-08T16:15:17.185Z,95421
2018-02-08T16:17:45.353Z,95434
2018-02-08T16:20:13.434Z,95424
2018-02-08T16:22:41.525Z,95432
2018-02-08T16:25:09.581Z,95425
2018-02-08T16:27:37.641Z,95421
2018-02-08T16:30:05.785Z,95424
2018-02-08T16:32:33.803Z,95416
2018-02-08T16:35:03.738Z,95424
2018-02-08T16:37:32.941Z,95445
2018-02-08T16:40:01.013Z,95433
2018-02-08T16:42:29.185Z,95433
2018-02-08T16:44:57.262Z,95430
2018-02-08T16:47:25.341Z,95441
2018-02-08T16:49:53.424Z,95446
2018-02-08T16:52:21.598Z,95439
2018-02-08T16:54:49.670Z,95445
2018-02-08T16:57:17.733Z,95467
2018-02-08T16:59:46.512Z,95449
2018-02-08T17:02:14.577Z,95451
2018-02-08T17:04:42.643Z,95468
2018-02-08T17:07:11.469Z,95462
2018-02-08T17:09:39.529Z,95453
2018-02-08T17:12:07.640Z,95461
2018-02-08T17:14:35.701Z,95466
2018-02-08T17:17:03.781Z,95473
2018-02-08T17:19:31.873Z,95464
2018-02-08T17:21:59.984Z,95459
2018-02-08T17:24:28.217Z,95472
2018-02-08T17:26:57.909Z,95469
2018-02-08T17:29:26.046Z,95466
2018-02-08T17:31:54.062Z,95465
2018-02-08T17:34:22.161Z,95473
2018-02-08T17:36:50.965Z,95469
2018-02-08T17:39:19.040Z,95478
2018-02-08T17:41:47.084Z,95464
2018-02-08T17:44:15.190Z,95474
2018-02-08T17:46:43.269Z,95476
2018-02-08T17:49:11.338Z,95467
2018-02-08T17:51:39.401Z,95480
2018-02-08T17:54:07.466Z,95480
2018-02-08T17:56:35.522Z,95478
2018-02-08T17:59:03.887Z,95462
2018-02-08T18:01:31.954Z,95476
2018-02-08T18:04:00.037Z,95481
2018-02-08T18:06:28.194Z,95482
2018-02-08T18:08:56.264Z,95474
2018-02-08T18:11:24.437Z,95487
2018-02-08T18:13:52.518Z,95485
2018-02-08T18:16:20.701Z,95490
2018-02-08T18:18:48.761Z,95485
2018-02-08T18:21:16.849Z,95489
2018-02-08T18:23:44.930Z,95484
2018-02-08T18:26:13.001Z,95494
2018-02-08T18:28:41.157Z,95493
2018-02-08T18:31:09.219Z,95486
2018-02-08T18:33:37.329Z,95490
2018-02-08T18:36:05.390Z,95494
2018-02-08T18:38:34.467Z,95481
2018-02-08T18:41:02.525Z,95476
2018-02-08T18:43:31.358Z,95494
2018-02-08T18:45:59.413Z,95487
2018-02-08T18:48:27.480Z,95498
2018-02-08T18:50:56.321Z,95500
2018-02-08T18:53:24.395Z,95500
2018-02-08T18:55:52.461Z,95500
2018-02-08T18:58:20.564Z,95493
2018-02-08T19:00:48.577Z,95497
2018-02-08T19:03:16.697Z,95499
2018-02-08T19:05:44.761Z,95502
2018-02-08T19:08:12.822Z,95497
2018-02-08T19:10:40.897Z,95496
2018-02-08T19:13:09.007Z,95501
2018-02-08T19:15:37.065Z,95503
2018-02-08T19:18:05.130Z,95498
2018-02-08T19:20:33.275Z,95496
2018-02-08T19:23:01.415Z,95497
2018-02-08T19:25:29.487Z,95499
2018-02-08T19:27:57.558Z,95503
2018-02-08T19:30:25.629Z,95500
2018-02-08T19:32:53.697Z,95506
2018-02-08T19:35:21.767Z,95515
2018-02-08T19:37:49.882Z,95517
2018-02-08T19:40:17.952Z,95508
2018-02-08T19:42:46.030Z,95513
2018-02-08T19:45:14.085Z,95516
2018-02-08T19:47:42.173Z,95516
2018-02-08T19:50:10.257Z,95519
2018-02-08T19:52:38.974Z,95523
2018-02-08T19:55:07.038Z,95519
2018-02-08T19:57:35.501Z,95506
2018-02-08T20:00:03.585Z,95523
2018-02-08T20:02:31.640Z,95516
2018-02-08T20:04:59.750Z,95513
2018-02-08T20:07:27.775Z,95518
2018-02-08T20:09:55.886Z,95521
2018-02-08T20:12:23.954Z,95513
2018-02-08T20:14:52.009Z,95516
2018-02-08T20:17:20.110Z,95524
2018-02-08T20:19:48.193Z,95517
2018-02-08T20:22:16.274Z,95508
2018-02-08T20:24:44.350Z,95515
2018-02-08T20:27:12.419Z,95518
2018-02-08T20:29:40.473Z,95511
2018-02-08T20:32:09.226Z,95505
2018-02-08T20:34:38.458Z,95510
2018-02-08T20:37:06.538Z,95506
2018-02-08T20:39:34.641Z,95502
2018-02-08T20:42:02.733Z,95508
2018-02-08T20:44:30.785Z,95507
2018-02-08T20:46:58.857Z,95512
2018-02-08T20:49:26.911Z,95516
2018-02-08T20:51:54.975Z,95507
2018-02-08T20:54:23.822Z,95496
2018-02-08T20:56:51.885Z,95508
2018-02-08T20:59:19.941Z,95501
2018-02-08T21:01:48.018Z,95515
2018-02-08T21:04:16.119Z,95490
2018-02-08T21:06:44.173Z,95500
2018-02-08T21:09:12.298Z,95494
2018-02-08T21:11:40.345Z,95479
2018-02-08T21:14:09.134Z,95487
2018-02-08T21:16:38.141Z,95483
2018-02-08T21:19:07.333Z,95485
2018-02-08T21:21:35.392Z,95483
2018-02-08T21:24:04.385Z,95476
2018-02-08T21:26:32.441Z,95482
2018-02-08T21:29:01.290Z,95487
2018-02-08T21:31:29.349Z,95492
2018-02-08T21:33:57.437Z,95485
2018-02-08T21:36:25.517Z,95481
2018-02-08T21:38:53.594Z,95485
2018-02-08T21:41:21.665Z,95485
2018-02-08T21:43:49.733Z,95476
2018-02-08T21:46:17.789Z,95478
2018-02-08T21:48:45.867Z,95477
2018-02-08T21:51:13.923Z,95467
2018-02-08T21:53:42.776Z,95466
2018-02-08T21:56:10.829Z,95462
2018-02-08T21:58:38.913Z,95470
2018-02-08T22:01:08.117Z,95463
2018-02-08T22:03:36.206Z,95461
2018-02-08T22:06:04.270Z,95459
2018-02-08T22:08:32.341Z,95460
2018-02-08T22:11:01.113Z,95469
2018-02-08T22:13:29.217Z,95458
2018-02-08T22:15:57.293Z,95468
2018-02-08T22:18:25.357Z,95465
2018-02-08T22:20:53.430Z,95453
2018-02-08T22:23:21.525Z,95458
2018-02-08T22:25:49.605Z,95463
2018-02-08T22:28:17.677Z,95464
2018-02-08T22:30:45.738Z,95467
2018-02-08T22:33:13.811Z,95458
2018-02-08T22:35:41.873Z,95458
2018-02-08T22:38:09.929Z,95469
2018-02-08T22:40:39.376Z,95470
2018-02-08T22:43:09.318Z,95446
2018-02-08T22:45:38.509Z,95448
2018-02-08T22:48:06.580Z,95471
2018-02-08T22:50:34.649Z,95450
2018-02-08T22:53:02.737Z,95450
2018-02-08T22:55:30.806Z,95452
2018-02-08T22:57:58.893Z,95461
2018-02-08T23:00:26.956Z,95463
2018-02-08T23:02:55.041Z,95449
2018-02-08T23:05:23.133Z,95448
2018-02-08T23:07:51.187Z,95452
2018-02-08T23:10:19.269Z,95448
2018-02-08T23:12:47.333Z,95459
2018-02-08T23:15:15.393Z,95453
2018-02-08T23:17:43.501Z,95448
2018-02-08T23:20:11.593Z,95460
2018-02-08T23:22:39.709Z,95463
2018-02-08T23:25:07.768Z,95470
2018-02-08T23:27:36.598Z,95472
2018-02-08T23:30:04.653Z,95468
2018-02-08T23:32:33.481Z,95463
2018-02-08T23:35:01.542Z,95459
2018-02-08T23:37:29.601Z,95463
2018-02-08T23:39:57.724Z,95458
2018-02-08T23:42:25.781Z,95464
2018-02-08T23:44:54.198Z,95454
2018-02-08T23:47:22.362Z,95454
2018-02-08T23:49:50.416Z,95454
2018-02-08T23:52:18.509Z,95444
2018-02-08T23:54:46.569Z,95461
2018-02-08T23:57:14.665Z,95447
2018-02-08T23:59:42.737Z,95454
